createdAt,value
2022-12-03T00:01:35.264Z,99858.47
2022-12-03T00:04:03.624Z,99849.13
2022-12-03T00:06:34.828Z,99848.81
2022-12-03T00:09:03.103Z,99857.59
2022-12-03T00:11:31.346Z,99855.97
2022-12-03T00:13:59.524Z,99864.25
2022-12-03T00:16:27.773Z,99855.69
2022-12-03T00:18:55.903Z,99859.94
2022-12-03T00:21:24.890Z,99853.97
2022-12-03T00:23:54.680Z,99851.56
2022-12-03T00:26:22.908Z,99858.75
2022-12-03T00:28:50.943Z,99858.22
2022-12-03T00:31:21.539Z,99855.56
2022-12-03T00:33:49.747Z,99859.81
2022-12-03T00:36:17.748Z,99858.53
2022-12-03T00:38:46.013Z,99863.91
2022-12-03T00:41:15.495Z,99864.44
2022-12-03T00:43:43.476Z,99859.66
2022-12-03T00:46:11.507Z,99864.97
2022-12-03T00:48:39.574Z,99872.44
2022-12-03T00:51:07.898Z,99867.91
2022-12-03T00:53:36.149Z,99869.81
2022-12-03T00:56:04.196Z,99871.97
2022-12-03T00:58:33.682Z,99881.13
2022-12-03T01:01:01.710Z,99874.97
2022-12-03T01:03:30.323Z,99873.31
2022-12-03T01:05:58.410Z,99874.16
2022-12-03T01:08:26.409Z,99875.47
2022-12-03T01:10:54.495Z,99881.34
2022-12-03T01:13:22.504Z,99886.19
2022-12-03T01:15:51.999Z,99876.06
2022-12-03T01:18:20.082Z,99873.13
2022-12-03T01:20:48.090Z,99884.13
2022-12-03T01:23:16.107Z,99886.06
2022-12-03T01:25:44.199Z,99880.16
2022-12-03T01:28:12.292Z,99888.97
2022-12-03T01:30:54.135Z,99879.88
2022-12-03T01:33:23.591Z,99890.56
2022-12-03T01:35:51.608Z,99884.41
2022-12-03T01:38:19.610Z,99889.53
2022-12-03T01:40:49.055Z,99886.06
2022-12-03T01:43:17.116Z,99888.97
2022-12-03T01:45:45.215Z,99888.97
2022-12-03T01:48:16.753Z,99883.63
2022-12-03T01:50:46.698Z,99880.38
2022-12-03T01:53:19.053Z,99882.53
2022-12-03T01:55:49.079Z,99885.94
2022-12-03T01:58:18.460Z,99885.66
2022-12-03T02:00:46.528Z,99876.56
2022-12-03T02:03:19.914Z,99881.13
2022-12-03T02:05:49.309Z,99882.72
2022-12-03T02:08:32.211Z,99876.84
2022-12-03T02:11:03.932Z,99881.91
2022-12-03T02:13:32.544Z,99881.13
2022-12-03T02:16:00.665Z,99878.16
2022-12-03T02:18:28.819Z,99884.34
2022-12-03T02:21:05.033Z,99884.03
2022-12-03T02:23:38.674Z,99886.97
2022-12-03T02:26:08.333Z,99893.34
2022-12-03T02:28:36.353Z,99891.50
2022-12-03T02:31:05.257Z,99883.16
2022-12-03T02:33:33.573Z,99892.78
2022-12-03T02:36:03.944Z,99897.56
2022-12-03T02:38:34.349Z,99894.34
2022-12-03T02:41:06.181Z,99888.72
2022-12-03T02:43:34.643Z,99890.59
2022-12-03T02:46:04.956Z,99894.66
2022-12-03T02:48:35.810Z,99893.84
2022-12-03T02:51:06.562Z,99886.06
2022-12-03T02:53:42.358Z,99892.78
2022-12-03T02:56:13.401Z,99889.28
2022-12-03T02:58:44.061Z,99892.22
2022-12-03T03:01:12.767Z,99891.66
2022-12-03T03:03:41.134Z,99890.34
2022-12-03T03:06:10.657Z,99892.78
2022-12-03T03:08:40.485Z,99886.13
2022-12-03T03:11:09.008Z,99890.09
2022-12-03T03:13:37.743Z,99892.78
2022-12-03T03:16:09.087Z,99891.69
2022-12-03T03:18:37.827Z,99896.00
2022-12-03T03:21:06.345Z,99893.88
2022-12-03T03:23:34.490Z,99903.75
2022-12-03T03:26:05.951Z,99905.06
2022-12-03T03:28:36.709Z,99901.88
2022-12-03T03:31:08.690Z,99891.66
2022-12-03T03:33:38.053Z,99901.81
2022-12-03T03:36:07.960Z,99899.94
2022-12-03T03:38:36.955Z,99904.72
2022-12-03T03:41:07.086Z,99906.84
2022-12-03T03:43:36.864Z,99903.91
2022-12-03T03:46:05.993Z,99894.81
2022-12-03T03:48:36.636Z,99899.13
2022-12-03T03:51:09.585Z,99897.25
2022-12-03T03:53:39.849Z,99889.47
2022-12-03T03:56:08.774Z,99904.47
2022-12-03T03:58:37.480Z,99894.81
2022-12-03T04:01:05.705Z,99902.03
2022-12-03T04:03:35.569Z,99900.16
2022-12-03T04:06:04.000Z,99897.50
2022-12-03T04:08:32.326Z,99904.47
2022-12-03T04:11:17.840Z,99903.09
2022-12-03T04:13:46.660Z,99902.81
2022-12-03T04:16:14.800Z,99903.06
2022-12-03T04:18:44.289Z,99903.31
2022-12-03T04:21:31.213Z,99906.47
2022-12-03T04:23:59.509Z,99903.50
2022-12-03T04:26:45.520Z,99906.97
2022-12-03T04:29:13.819Z,99907.25
2022-12-03T04:31:59.566Z,99904.25
2022-12-03T04:34:46.763Z,99905.81
2022-12-03T04:37:14.786Z,99902.84
2022-12-03T04:39:42.835Z,99910.78
2022-12-03T04:42:10.925Z,99911.53
2022-12-03T04:44:39.108Z,99917.31
2022-12-03T04:47:10.486Z,99915.63
2022-12-03T04:49:41.985Z,99913.16
2022-12-03T04:52:10.578Z,99912.56
2022-12-03T04:54:39.220Z,99913.06
2022-12-03T04:57:08.203Z,99916.25
2022-12-03T04:59:37.103Z,99916.16
2022-12-03T05:02:06.164Z,99920.41
2022-12-03T05:04:34.605Z,99918.22
2022-12-03T05:07:04.609Z,99927.22
2022-12-03T05:09:32.588Z,99925.28
2022-12-03T05:12:00.571Z,99929.50
2022-12-03T05:14:28.777Z,99927.56
2022-12-03T05:17:12.108Z,99934.75
2022-12-03T05:19:57.467Z,99934.19
2022-12-03T05:22:26.885Z,99941.88
2022-12-03T05:24:55.335Z,99935.16
2022-12-03T05:27:24.408Z,99937.53
2022-12-03T05:29:53.020Z,99933.13
2022-12-03T05:32:21.544Z,99934.69
2022-12-03T05:34:49.612Z,99939.72
2022-12-03T05:37:17.688Z,99934.84
2022-12-03T05:39:47.120Z,99946.56
2022-12-03T05:42:32.676Z,99941.22
2022-12-03T05:45:00.650Z,99948.69
2022-12-03T05:47:28.683Z,99944.38
2022-12-03T05:49:56.800Z,99947.53
2022-12-03T05:52:24.794Z,99942.09
2022-12-03T05:54:54.348Z,99942.84
2022-12-03T05:57:22.491Z,99947.84
2022-12-03T05:59:50.479Z,99940.31
2022-12-03T06:02:18.692Z,99944.28
2022-12-03T06:04:46.925Z,99945.59
2022-12-03T06:07:14.956Z,99948.47
2022-12-03T06:09:42.946Z,99954.03
2022-12-03T06:12:12.618Z,99948.47
2022-12-03T06:14:41.069Z,99962.13
2022-12-03T06:17:09.201Z,99957.38
2022-12-03T06:19:37.224Z,99964.69
2022-12-03T06:22:05.254Z,99967.66
2022-12-03T06:24:33.234Z,99967.19
2022-12-03T06:27:01.256Z,99971.81
2022-12-03T06:29:30.637Z,99976.41
2022-12-03T06:31:58.710Z,99973.25
2022-12-03T06:34:26.766Z,99977.88
2022-12-03T06:36:54.838Z,99979.81
2022-12-03T06:39:23.079Z,99988.69
2022-12-03T06:41:51.113Z,99984.25
2022-12-03T06:44:19.223Z,99979.78
2022-12-03T06:46:49.361Z,99985.78
2022-12-03T06:49:17.374Z,99993.63
2022-12-03T06:51:45.367Z,99991.63
2022-12-03T06:54:13.316Z,99987.72
2022-12-03T06:56:45.179Z,99997.75
2022-12-03T06:59:13.691Z,99993.34
2022-12-03T07:01:41.962Z,99996.47
2022-12-03T07:04:11.403Z,99988.34
2022-12-03T07:06:39.502Z,99992.00
2022-12-03T07:09:07.630Z,99988.16
2022-12-03T07:11:40.420Z,99984.03
2022-12-03T07:14:13.052Z,99990.38
2022-12-03T07:16:43.475Z,99989.44
2022-12-03T07:19:13.576Z,99989.34
2022-12-03T07:21:41.626Z,99992.97
2022-12-03T07:24:10.275Z,99983.22
2022-12-03T07:26:38.347Z,99993.78
2022-12-03T07:29:06.423Z,99981.56
2022-12-03T07:31:34.606Z,99985.91
2022-12-03T07:34:02.864Z,99984.34
2022-12-03T07:36:32.326Z,99979.06
2022-12-03T07:39:00.319Z,99975.38
2022-12-03T07:41:28.333Z,99979.19
2022-12-03T07:43:56.384Z,99973.81
2022-12-03T07:46:24.503Z,99978.94
2022-12-03T07:48:52.659Z,99985.06
2022-12-03T07:51:20.697Z,99984.53
2022-12-03T07:53:50.084Z,99975.41
2022-12-03T07:56:18.177Z,99979.41
2022-12-03T07:58:46.155Z,99981.78
2022-12-03T08:01:14.259Z,99992.47
2022-12-03T08:03:42.987Z,99990.63
2022-12-03T08:06:11.255Z,99990.63
2022-12-03T08:08:39.327Z,99989.28
2022-12-03T08:11:13.994Z,99995.47
2022-12-03T08:13:42.371Z,99998.53
2022-12-03T08:16:17.174Z,99987.03
2022-12-03T08:18:46.100Z,99993.50
2022-12-03T08:21:15.746Z,99995.13
2022-12-03T08:23:44.164Z,100000.22
2022-12-03T08:26:22.902Z,99987.88
2022-12-03T08:28:51.204Z,99999.19
2022-12-03T08:31:27.937Z,99997.84
2022-12-03T08:34:08.026Z,99988.75
2022-12-03T08:36:36.528Z,100000.06
2022-12-03T08:39:24.217Z,99990.66
2022-12-03T08:42:14.782Z,99989.63
2022-12-03T08:44:42.826Z,99989.88
2022-12-03T08:47:15.344Z,99988.00
2022-12-03T08:49:47.066Z,99989.91
2022-12-03T08:52:18.838Z,99990.72
2022-12-03T08:54:52.963Z,99989.34
2022-12-03T08:57:28.359Z,99986.66
2022-12-03T09:00:01.212Z,99981.00
2022-12-03T09:02:33.045Z,99990.69
2022-12-03T09:05:14.485Z,99982.63
2022-12-03T09:07:42.608Z,99977.25
2022-12-03T09:10:11.043Z,99977.75
2022-12-03T09:12:40.470Z,99978.28
2022-12-03T09:15:09.413Z,99975.91
2022-12-03T09:17:38.255Z,99975.63
2022-12-03T09:20:07.571Z,99978.03
2022-12-03T09:22:35.899Z,99983.41
2022-12-03T09:25:03.936Z,99979.91
2022-12-03T09:27:31.917Z,99978.00
2022-12-03T09:30:01.520Z,99976.66
2022-12-03T09:32:29.704Z,99980.41
2022-12-03T09:34:57.809Z,99976.41
2022-12-03T09:37:25.807Z,99970.22
2022-12-03T09:39:53.801Z,99969.19
2022-12-03T09:42:22.200Z,99979.13
2022-12-03T09:44:50.266Z,99978.53
2022-12-03T09:47:20.229Z,99965.91
2022-12-03T09:49:48.345Z,99967.22
2022-12-03T09:52:27.411Z,99972.34
2022-12-03T09:54:56.244Z,99961.31
2022-12-03T09:57:24.582Z,99962.38
2022-12-03T09:59:52.892Z,99969.59
2022-12-03T10:02:25.766Z,99964.22
2022-12-03T10:04:54.770Z,99960.41
2022-12-03T10:07:23.623Z,99957.19
2022-12-03T10:09:52.319Z,99958.03
2022-12-03T10:12:24.683Z,99951.31
2022-12-03T10:14:53.845Z,99961.78
2022-12-03T10:17:23.572Z,99958.81
2022-12-03T10:19:51.938Z,99957.63
2022-12-03T10:22:20.107Z,99958.97
2022-12-03T10:25:05.132Z,99958.97
2022-12-03T10:27:33.202Z,99960.84
2022-12-03T10:30:03.130Z,99953.28
2022-12-03T10:32:43.960Z,99951.72
2022-12-03T10:35:15.324Z,99954.94
2022-12-03T10:37:59.341Z,99949.56
2022-12-03T10:40:29.124Z,99944.16
2022-12-03T10:43:16.148Z,99940.56
2022-12-03T10:45:45.285Z,99938.09
2022-12-03T10:48:16.511Z,99932.75
2022-12-03T10:50:53.019Z,99933.31
2022-12-03T10:53:22.952Z,99936.75
2022-12-03T10:55:52.907Z,99931.88
2022-12-03T10:58:23.935Z,99939.63
2022-12-03T11:00:53.940Z,99938.56
2022-12-03T11:03:25.160Z,99936.19
2022-12-03T11:05:54.580Z,99938.59
2022-12-03T11:08:25.219Z,99931.06
2022-12-03T11:11:01.751Z,99928.31
2022-12-03T11:13:44.918Z,99916.13
2022-12-03T11:16:13.891Z,99923.63
2022-12-03T11:19:03.500Z,99915.25
2022-12-03T11:21:31.992Z,99915.34
2022-12-03T11:24:22.127Z,99917.22
2022-12-03T11:27:20.714Z,99911.16
2022-12-03T11:30:00.496Z,99907.00
2022-12-03T11:33:02.207Z,99905.22
2022-12-03T11:35:54.303Z,99908.44
2022-12-03T11:38:53.017Z,99905.56
2022-12-03T11:41:24.332Z,99909.34
2022-12-03T11:44:27.248Z,99905.97
2022-12-03T11:46:55.889Z,99900.78
2022-12-03T11:49:39.444Z,99904.00
2022-12-03T11:52:30.544Z,99902.50
2022-12-03T11:55:06.718Z,99901.00
2022-12-03T11:57:37.617Z,99902.19
2022-12-03T12:00:19.805Z,99895.53
2022-12-03T12:02:49.238Z,99904.53
2022-12-03T12:05:30.253Z,99902.44
2022-12-03T12:08:00.765Z,99889.38
2022-12-03T12:10:46.593Z,99891.84
2022-12-03T12:13:55.585Z,99890.72
2022-12-03T12:16:55.161Z,99895.19
2022-12-03T12:19:37.692Z,99888.75
2022-12-03T12:22:35.704Z,99891.91
2022-12-03T12:25:06.911Z,99888.75
2022-12-03T12:27:39.380Z,99887.94
2022-12-03T12:30:10.840Z,99891.16
2022-12-03T12:32:46.343Z,99884.47
2022-12-03T12:35:17.672Z,99891.81
2022-12-03T12:37:56.617Z,99891.28
2022-12-03T12:40:30.573Z,99890.47
2022-12-03T12:43:02.183Z,99883.16
2022-12-03T12:45:37.542Z,99879.13
2022-12-03T12:48:20.918Z,99892.78
2022-12-03T12:50:51.816Z,99884.00
2022-12-03T12:53:24.427Z,99885.06
2022-12-03T12:55:57.660Z,99887.03
2022-12-03T12:58:26.775Z,99882.28
2022-12-03T13:00:56.234Z,99880.25
2022-12-03T13:03:27.050Z,99885.00
2022-12-03T13:05:57.682Z,99895.84
2022-12-03T13:08:28.917Z,99895.16
2022-12-03T13:10:59.710Z,99885.66
2022-12-03T13:13:40.225Z,99888.81
2022-12-03T13:16:17.044Z,99898.78
2022-12-03T13:18:48.467Z,99895.75
2022-12-03T13:21:40.485Z,99904.56
2022-12-03T13:24:30.099Z,99904.31
2022-12-03T13:27:10.252Z,99904.97
2022-12-03T13:29:39.088Z,99896.03
2022-12-03T13:32:20.117Z,99907.63
2022-12-03T13:34:50.565Z,99905.28
2022-12-03T13:37:22.269Z,99905.16
2022-12-03T13:39:52.323Z,99906.06
2022-12-03T13:42:42.791Z,99901.31
2022-12-03T13:45:31.625Z,99908.56
2022-12-03T13:48:01.891Z,99910.25
2022-12-03T13:50:35.471Z,99899.69
2022-12-03T13:53:10.965Z,99903.06
2022-12-03T14:08:39.790Z,99914.81
2022-12-03T14:11:08.101Z,99920.19
2022-12-03T14:13:36.264Z,99911.63
2022-12-03T14:16:04.437Z,99912.19
2022-12-03T14:18:32.545Z,99912.50
2022-12-03T14:21:00.523Z,99924.59
2022-12-03T14:23:28.505Z,99931.88
2022-12-03T14:25:57.872Z,99922.22
2022-12-03T14:28:25.907Z,99918.72
2022-12-03T14:30:53.894Z,99923.00
2022-12-03T14:33:21.923Z,99920.84
2022-12-03T14:35:53.412Z,99931.28
2022-12-03T14:38:21.571Z,99921.06
2022-12-03T14:40:49.548Z,99923.97
2022-12-03T14:43:18.899Z,99931.44
2022-12-03T14:45:46.909Z,99931.94
2022-12-03T14:48:15.022Z,99930.03
2022-12-03T14:50:43.058Z,99935.06
2022-12-03T14:53:11.153Z,99941.72
2022-12-03T14:55:39.232Z,99931.50
2022-12-03T14:58:07.241Z,99937.09
2022-12-03T15:00:36.611Z,99945.09
2022-12-03T15:03:04.635Z,99946.13
2022-12-03T15:05:32.631Z,99943.41
2022-12-03T15:08:00.715Z,99939.09
2022-12-03T15:10:28.699Z,99946.28
2022-12-03T15:12:56.660Z,99950.81
2022-12-03T15:15:24.680Z,99955.31
2022-12-03T15:17:54.063Z,99948.06
2022-12-03T15:20:22.066Z,99952.88
2022-12-03T15:22:50.006Z,99958.16
2022-12-03T15:25:24.248Z,99958.69
2022-12-03T15:27:52.456Z,99950.59
2022-12-03T15:30:20.733Z,99955.91
2022-12-03T15:32:48.747Z,99959.09
2022-12-03T15:35:18.805Z,99951.03
2022-12-03T15:37:51.693Z,99961.19
2022-12-03T15:40:19.608Z,99956.34
2022-12-03T15:42:47.534Z,99955.50
2022-12-03T15:45:15.759Z,99958.41
2022-12-03T15:47:43.760Z,99958.41
2022-12-03T15:50:12.857Z,99958.91
2022-12-03T15:52:42.203Z,99963.72
2022-12-03T15:55:10.859Z,99955.69
2022-12-03T15:57:38.997Z,99966.38
2022-12-03T16:00:08.379Z,99970.19
2022-12-03T16:02:36.476Z,99969.13
2022-12-03T16:05:06.541Z,99978.22
2022-12-03T16:07:34.518Z,99978.22
2022-12-03T16:10:04.675Z,99976.84
2022-12-03T16:12:35.656Z,99983.81
2022-12-03T16:15:03.593Z,99979.00
2022-12-03T16:17:31.595Z,99984.94
2022-12-03T16:19:59.596Z,99987.91
2022-12-03T16:22:27.635Z,99990.06
2022-12-03T16:24:55.546Z,99985.28
2022-12-03T16:27:25.983Z,99981.28
2022-12-03T16:29:56.140Z,99988.47
2022-12-03T16:32:24.374Z,99985.28
2022-12-03T16:34:52.339Z,99990.63
2022-12-03T16:37:20.277Z,99993.31
2022-12-03T16:39:48.920Z,99993.84
2022-12-03T16:42:17.636Z,99997.59
2022-12-03T16:45:15.737Z,99994.06
2022-12-03T16:47:43.812Z,99993.25
2022-12-03T16:50:18.711Z,99995.94
2022-12-03T16:52:49.995Z,100003.16
2022-12-03T16:55:18.150Z,99999.09
2022-12-03T16:57:46.144Z,100005.81
2022-12-03T17:00:17.321Z,100001.50
2022-12-03T17:02:45.410Z,100004.75
2022-12-03T17:05:13.553Z,100009.59
2022-12-03T17:07:41.629Z,100014.16
2022-12-03T17:10:10.570Z,100003.94
2022-12-03T17:13:07.710Z,100006.63
2022-12-03T17:15:28.078Z,100013.84
2022-12-03T17:17:56.435Z,100007.44
2022-12-03T17:20:24.363Z,100011.72
2022-12-03T17:22:52.419Z,100009.81
2022-12-03T17:25:20.494Z,100012.72
2022-12-03T17:27:48.554Z,100006.84
2022-12-03T17:30:16.926Z,100015.97
2022-12-03T17:32:46.530Z,100021.03
2022-12-03T17:35:14.561Z,100017.34
2022-12-03T17:37:42.466Z,100015.97
2022-12-03T17:40:14.435Z,100017.28
2022-12-03T17:42:42.602Z,100025.81
2022-12-03T17:45:11.547Z,100014.53
2022-12-03T17:47:39.748Z,100019.16
2022-12-03T17:50:10.332Z,100025.25
2022-12-03T17:52:38.343Z,100024.16
2022-12-03T17:55:14.233Z,100021.91
2022-12-03T17:57:45.973Z,100028.81
2022-12-03T18:00:14.675Z,100033.63
2022-12-03T18:02:42.708Z,100028.13
2022-12-03T18:05:13.124Z,100029.28
2022-12-03T18:07:41.261Z,100021.97
2022-12-03T18:10:09.736Z,100031.19
2022-12-03T18:12:37.773Z,100027.75
2022-12-03T18:15:06.548Z,100022.66
2022-12-03T18:17:34.627Z,100022.91
2022-12-03T18:20:02.729Z,100020.78
2022-12-03T18:22:32.471Z,100020.59
2022-12-03T18:25:00.654Z,100025.50
2022-12-03T18:27:28.846Z,100023.69
2022-12-03T18:29:57.494Z,100021.81
2022-12-03T18:32:29.285Z,100024.50
2022-12-03T18:34:58.898Z,100025.88
2022-12-03T18:37:29.905Z,100022.63
2022-12-03T18:40:00.174Z,100022.84
2022-12-03T18:42:28.422Z,100024.88
2022-12-03T18:44:57.778Z,100033.13
2022-12-03T18:47:28.534Z,100036.28
2022-12-03T18:49:57.792Z,100034.16
2022-12-03T18:52:26.070Z,100028.81
2022-12-03T18:54:55.294Z,100034.16
2022-12-03T18:57:24.801Z,100032.53
2022-12-03T18:59:53.305Z,100026.97
2022-12-03T19:05:11.342Z,100029.56
2022-12-03T19:07:39.586Z,100016.19
2022-12-03T19:10:09.020Z,100026.91
2022-12-03T19:12:39.055Z,100030.56
2022-12-03T19:15:08.351Z,100027.34
2022-12-03T19:17:36.366Z,100027.63
2022-12-03T19:20:05.308Z,100023.59
2022-12-03T19:22:33.351Z,100038.84
2022-12-03T19:25:01.292Z,100030.31
2022-12-03T19:27:32.668Z,100035.59
2022-12-03T19:30:01.972Z,100034.56
2022-12-03T19:32:30.048Z,100039.13
2022-12-03T19:34:58.080Z,100039.69
2022-12-03T19:37:26.032Z,100040.94
2022-12-03T19:39:56.857Z,100036.44
2022-12-03T19:42:25.353Z,100035.59
2022-12-03T19:44:53.313Z,100038.47
2022-12-03T19:47:24.694Z,100047.28
2022-12-03T19:49:54.223Z,100054.28
2022-12-03T19:52:22.332Z,100046.25
2022-12-03T19:54:50.335Z,100054.88
2022-12-03T19:57:23.206Z,100044.19
2022-12-03T19:59:52.095Z,100045.31
2022-12-03T20:02:20.560Z,100050.16
2022-12-03T20:04:50.077Z,100052.06
2022-12-03T20:07:18.138Z,100054.50
2022-12-03T20:09:46.163Z,100047.06
2022-12-03T20:12:14.146Z,100050.91
2022-12-03T20:14:42.173Z,100052.84
2022-12-03T20:17:10.204Z,100053.72
2022-12-03T20:19:38.273Z,100054.84
2022-12-03T20:22:07.603Z,100045.69
2022-12-03T20:24:35.544Z,100039.19
2022-12-03T20:27:03.645Z,100042.81
2022-12-03T20:29:31.722Z,100049.97
2022-12-03T20:32:00.559Z,100057.69
2022-12-03T20:34:28.696Z,100053.13
2022-12-03T20:36:56.645Z,100052.88
2022-12-03T20:39:25.971Z,100052.56
2022-12-03T20:41:53.936Z,100049.91
2022-12-03T20:44:21.855Z,100056.81
2022-12-03T20:46:49.830Z,100058.69
2022-12-03T20:49:17.868Z,100050.16
2022-12-03T20:51:45.836Z,100051.78
2022-12-03T20:54:13.893Z,100050.19
2022-12-03T20:56:43.210Z,100052.88
2022-12-03T20:59:13.381Z,100051.03
2022-12-03T21:01:42.060Z,100055.31
2022-12-03T21:04:11.257Z,100050.75
2022-12-03T21:06:42.034Z,100047.59
2022-12-03T21:09:11.489Z,100038.25
2022-12-03T21:11:42.354Z,100045.25
2022-12-03T21:14:12.466Z,100049.75
2022-12-03T21:19:30.171Z,100054.13
2022-12-03T21:21:58.302Z,100044.53
2022-12-03T21:24:26.266Z,100046.72
2022-12-03T21:26:54.529Z,100047.78
2022-12-03T21:29:24.098Z,100045.34
2022-12-03T21:31:52.277Z,100046.59
2022-12-03T21:34:20.412Z,100054.31
2022-12-03T21:36:48.440Z,100050.75
2022-12-03T21:39:16.531Z,100043.81
2022-12-03T21:42:36.203Z,100028.50
2022-12-03T21:44:35.066Z,100035.97
2022-12-03T21:47:12.049Z,100044.31
2022-12-03T21:49:42.451Z,100049.16
2022-12-03T21:52:10.947Z,100047.06
2022-12-03T21:54:38.933Z,100047.06
2022-12-03T21:57:06.952Z,100037.38
2022-12-03T21:59:36.365Z,100038.16
2022-12-03T22:02:04.639Z,100041.81
2022-12-03T22:04:32.766Z,100032.19
2022-12-03T22:07:00.728Z,100041.06
2022-12-03T22:09:28.943Z,100038.47
2022-12-03T22:11:59.287Z,100035.00
2022-12-03T22:14:27.381Z,100038.75
2022-12-03T22:16:56.952Z,100039.75
2022-12-03T22:19:24.977Z,100036.81
2022-12-03T22:21:53.446Z,100033.13
2022-12-03T22:24:21.510Z,100032.31
2022-12-03T22:26:49.442Z,100032.03
2022-12-03T22:29:17.351Z,100024.53
2022-12-03T22:31:45.381Z,100033.28
2022-12-03T22:34:14.797Z,100027.63
2022-12-03T22:36:42.736Z,100035.72
2022-12-03T22:39:10.679Z,100034.28
2022-12-03T22:41:38.667Z,100038.22
2022-12-03T22:44:07.090Z,100026.97
2022-12-03T22:46:35.132Z,100024.03
2022-12-03T22:49:07.097Z,100017.34
2022-12-03T22:51:37.032Z,100022.19
2022-12-03T22:54:05.743Z,100030.81
2022-12-03T22:56:33.963Z,100027.84
2022-12-03T22:59:01.939Z,100029.19
2022-12-03T23:01:31.416Z,100026.53
2022-12-03T23:03:59.985Z,100021.53
2022-12-03T23:06:29.222Z,100019.47
2022-12-03T23:08:59.897Z,100005.88
2022-12-03T23:11:28.663Z,100012.31
2022-12-03T23:13:56.607Z,99997.69
2022-12-03T23:16:27.250Z,100008.19
2022-12-03T23:18:55.634Z,100003.16
2022-12-03T23:21:29.782Z,100006.34
2022-12-03T23:24:00.159Z,100015.25
2022-12-03T23:26:29.241Z,100006.97
2022-12-03T23:28:57.679Z,100011.03
2022-12-03T23:31:27.328Z,100021.50
2022-12-03T23:33:56.254Z,100014.59
2022-12-03T23:36:25.546Z,100014.28
2022-12-03T23:38:53.589Z,100016.66
2022-12-03T23:41:26.648Z,100015.13
2022-12-03T23:43:54.950Z,100020.81
2022-12-03T23:46:25.408Z,100016.81
2022-12-03T23:48:53.937Z,100014.16
2022-12-03T23:51:23.816Z,100021.41
2022-12-03T23:53:52.866Z,100013.38
2022-12-03T23:56:23.761Z,100016.03
2022-12-03T23:58:52.462Z,100012.84
